sensor_id;sensor_type;location;lat;lon;timestamp;P1;durP1;ratioP1;P2;durP2;ratioP2
46675;SDS011;32412;51.478;5.694;2023-04-06T00:01:36;19.70;;;10.80;;
46675;SDS011;32412;51.478;5.694;2023-04-06T00:04:01;18.58;;;10.20;;
46675;SDS011;32412;51.478;5.694;2023-04-06T00:06:27;22.98;;;11.02;;
46675;SDS011;32412;51.478;5.694;2023-04-06T00:08:53;23.58;;;10.63;;
46675;SDS011;32412;51.478;5.694;2023-04-06T00:11:19;20.38;;;10.32;;
46675;SDS011;32412;51.478;5.694;2023-04-06T00:13:46;17.40;;;9.77;;
46675;SDS011;32412;51.478;5.694;2023-04-06T00:16:12;21.25;;;10.68;;
46675;SDS011;32412;51.478;5.694;2023-04-06T00:18:38;24.45;;;10.40;;
46675;SDS011;32412;51.478;5.694;2023-04-06T00:21:04;20.35;;;10.30;;
46675;SDS011;32412;51.478;5.694;2023-04-06T00:23:30;23.35;;;10.88;;
46675;SDS011;32412;51.478;5.694;2023-04-06T00:25:56;18.33;;;9.98;;
46675;SDS011;32412;51.478;5.694;2023-04-06T00:28:22;20.70;;;11.43;;
46675;SDS011;32412;51.478;5.694;2023-04-06T00:30:51;20.77;;;10.57;;
46675;SDS011;32412;51.478;5.694;2023-04-06T00:33:18;21.52;;;10.55;;
46675;SDS011;32412;51.478;5.694;2023-04-06T00:35:44;18.58;;;10.18;;
46675;SDS011;32412;51.478;5.694;2023-04-06T00:38:11;20.00;;;10.25;;
46675;SDS011;32412;51.478;5.694;2023-04-06T00:40:37;18.63;;;10.32;;
46675;SDS011;32412;51.478;5.694;2023-04-06T00:43:04;21.35;;;10.93;;
46675;SDS011;32412;51.478;5.694;2023-04-06T00:45:30;19.35;;;10.48;;
46675;SDS011;32412;51.478;5.694;2023-04-06T00:47:57;21.52;;;10.63;;
46675;SDS011;32412;51.478;5.694;2023-04-06T00:50:23;22.13;;;11.05;;
46675;SDS011;32412;51.478;5.694;2023-04-06T00:52:49;21.33;;;10.73;;
46675;SDS011;32412;51.478;5.694;2023-04-06T00:55:16;20.83;;;10.45;;
46675;SDS011;32412;51.478;5.694;2023-04-06T00:57:42;20.75;;;10.20;;
46675;SDS011;32412;51.478;5.694;2023-04-06T01:00:08;22.30;;;11.70;;
46675;SDS011;32412;51.478;5.694;2023-04-06T01:02:35;21.98;;;11.38;;
46675;SDS011;32412;51.478;5.694;2023-04-06T01:05:01;19.20;;;10.55;;
46675;SDS011;32412;51.478;5.694;2023-04-06T01:07:27;20.35;;;9.98;;
46675;SDS011;32412;51.478;5.694;2023-04-06T01:09:53;21.35;;;10.90;;
46675;SDS011;32412;51.478;5.694;2023-04-06T01:12:23;20.85;;;10.65;;
46675;SDS011;32412;51.478;5.694;2023-04-06T01:14:49;21.80;;;10.60;;
46675;SDS011;32412;51.478;5.694;2023-04-06T01:17:15;21.55;;;9.95;;
46675;SDS011;32412;51.478;5.694;2023-04-06T01:19:41;23.30;;;10.88;;
46675;SDS011;32412;51.478;5.694;2023-04-06T01:22:07;18.70;;;10.38;;
46675;SDS011;32412;51.478;5.694;2023-04-06T01:24:33;19.33;;;9.98;;
46675;SDS011;32412;51.478;5.694;2023-04-06T01:26:58;25.13;;;11.20;;
46675;SDS011;32412;51.478;5.694;2023-04-06T01:29:25;19.35;;;10.30;;
46675;SDS011;32412;51.478;5.694;2023-04-06T01:31:51;23.83;;;11.20;;
46675;SDS011;32412;51.478;5.694;2023-04-06T01:34:17;20.98;;;10.27;;
46675;SDS011;32412;51.478;5.694;2023-04-06T01:36:43;18.02;;;9.98;;
46675;SDS011;32412;51.478;5.694;2023-04-06T01:39:08;17.67;;;10.30;;
46675;SDS011;32412;51.478;5.694;2023-04-06T01:41:35;21.58;;;10.30;;
46675;SDS011;32412;51.478;5.694;2023-04-06T01:44:01;19.13;;;9.85;;
46675;SDS011;32412;51.478;5.694;2023-04-06T01:46:27;18.33;;;10.63;;
46675;SDS011;32412;51.478;5.694;2023-04-06T01:48:52;16.75;;;10.15;;
46675;SDS011;32412;51.478;5.694;2023-04-06T01:51:18;20.65;;;10.68;;
46675;SDS011;32412;51.478;5.694;2023-04-06T01:53:44;20.77;;;10.70;;
46675;SDS011;32412;51.478;5.694;2023-04-06T01:56:10;20.10;;;10.90;;
46675;SDS011;32412;51.478;5.694;2023-04-06T01:58:35;18.83;;;10.43;;
46675;SDS011;32412;51.478;5.694;2023-04-06T02:01:01;21.60;;;10.88;;
46675;SDS011;32412;51.478;5.694;2023-04-06T02:03:27;22.08;;;10.75;;
46675;SDS011;32412;51.478;5.694;2023-04-06T02:05:53;20.40;;;10.98;;
46675;SDS011;32412;51.478;5.694;2023-04-06T02:08:19;16.92;;;10.13;;
46675;SDS011;32412;51.478;5.694;2023-04-06T02:10:45;20.80;;;10.68;;
46675;SDS011;32412;51.478;5.694;2023-04-06T02:13:10;21.95;;;10.80;;
46675;SDS011;32412;51.478;5.694;2023-04-06T02:15:36;21.75;;;10.82;;
46675;SDS011;32412;51.478;5.694;2023-04-06T02:18:02;21.35;;;11.25;;
46675;SDS011;32412;51.478;5.694;2023-04-06T02:20:28;22.55;;;11.68;;
46675;SDS011;32412;51.478;5.694;2023-04-06T02:22:56;20.23;;;10.77;;
46675;SDS011;32412;51.478;5.694;2023-04-06T02:25:23;23.15;;;11.77;;
46675;SDS011;32412;51.478;5.694;2023-04-06T02:27:50;25.65;;;11.82;;
46675;SDS011;32412;51.478;5.694;2023-04-06T02:30:15;24.17;;;12.10;;
46675;SDS011;32412;51.478;5.694;2023-04-06T02:32:41;20.30;;;11.25;;
46675;SDS011;32412;51.478;5.694;2023-04-06T02:35:07;22.85;;;12.20;;
46675;SDS011;32412;51.478;5.694;2023-04-06T02:37:33;23.92;;;12.23;;
46675;SDS011;32412;51.478;5.694;2023-04-06T02:39:58;20.55;;;11.27;;
46675;SDS011;32412;51.478;5.694;2023-04-06T02:42:24;24.55;;;12.40;;
46675;SDS011;32412;51.478;5.694;2023-04-06T02:44:50;28.58;;;12.80;;
46675;SDS011;32412;51.478;5.694;2023-04-06T02:47:15;23.25;;;11.75;;
46675;SDS011;32412;51.478;5.694;2023-04-06T02:49:41;27.85;;;12.95;;
46675;SDS011;32412;51.478;5.694;2023-04-06T02:52:07;22.63;;;12.30;;
46675;SDS011;32412;51.478;5.694;2023-04-06T02:54:32;32.72;;;12.55;;
46675;SDS011;32412;51.478;5.694;2023-04-06T02:56:58;30.40;;;13.70;;
46675;SDS011;32412;51.478;5.694;2023-04-06T02:59:24;21.77;;;11.93;;
46675;SDS011;32412;51.478;5.694;2023-04-06T03:01:50;25.38;;;12.43;;
46675;SDS011;32412;51.478;5.694;2023-04-06T03:04:16;24.60;;;12.55;;
46675;SDS011;32412;51.478;5.694;2023-04-06T03:06:42;23.73;;;13.43;;
46675;SDS011;32412;51.478;5.694;2023-04-06T03:09:07;25.05;;;12.93;;
46675;SDS011;32412;51.478;5.694;2023-04-06T03:11:33;24.20;;;12.57;;
46675;SDS011;32412;51.478;5.694;2023-04-06T03:13:59;27.40;;;13.18;;
46675;SDS011;32412;51.478;5.694;2023-04-06T03:16:24;27.98;;;12.82;;
46675;SDS011;32412;51.478;5.694;2023-04-06T03:18:50;25.48;;;12.55;;
46675;SDS011;32412;51.478;5.694;2023-04-06T03:21:16;25.58;;;13.10;;
46675;SDS011;32412;51.478;5.694;2023-04-06T03:23:42;24.42;;;12.63;;
46675;SDS011;32412;51.478;5.694;2023-04-06T03:26:08;25.48;;;12.85;;
46675;SDS011;32412;51.478;5.694;2023-04-06T03:28:33;24.98;;;13.13;;
46675;SDS011;32412;51.478;5.694;2023-04-06T03:30:59;24.05;;;13.10;;
46675;SDS011;32412;51.478;5.694;2023-04-06T03:33:25;27.77;;;13.75;;
46675;SDS011;32412;51.478;5.694;2023-04-06T03:35:54;26.00;;;14.52;;
46675;SDS011;32412;51.478;5.694;2023-04-06T03:38:20;25.13;;;13.93;;
46675;SDS011;32412;51.478;5.694;2023-04-06T03:40:45;29.30;;;13.73;;
46675;SDS011;32412;51.478;5.694;2023-04-06T03:43:11;26.75;;;13.65;;
46675;SDS011;32412;51.478;5.694;2023-04-06T03:45:37;30.77;;;14.30;;
46675;SDS011;32412;51.478;5.694;2023-04-06T03:48:02;28.60;;;14.25;;
46675;SDS011;32412;51.478;5.694;2023-04-06T03:50:29;25.50;;;13.43;;
46675;SDS011;32412;51.478;5.694;2023-04-06T03:52:54;26.30;;;14.30;;
46675;SDS011;32412;51.478;5.694;2023-04-06T03:55:20;30.58;;;14.63;;
46675;SDS011;32412;51.478;5.694;2023-04-06T03:57:46;26.05;;;14.52;;
46675;SDS011;32412;51.478;5.694;2023-04-06T04:00:12;26.02;;;13.98;;
46675;SDS011;32412;51.478;5.694;2023-04-06T04:02:38;27.30;;;14.15;;
46675;SDS011;32412;51.478;5.694;2023-04-06T04:05:07;24.73;;;13.82;;
46675;SDS011;32412;51.478;5.694;2023-04-06T04:07:33;26.63;;;13.75;;
46675;SDS011;32412;51.478;5.694;2023-04-06T04:09:58;28.13;;;13.88;;
46675;SDS011;32412;51.478;5.694;2023-04-06T04:12:24;26.65;;;13.27;;
46675;SDS011;32412;51.478;5.694;2023-04-06T04:14:50;32.22;;;13.45;;
46675;SDS011;32412;51.478;5.694;2023-04-06T04:17:16;24.15;;;13.80;;
46675;SDS011;32412;51.478;5.694;2023-04-06T04:19:41;27.05;;;13.68;;
46675;SDS011;32412;51.478;5.694;2023-04-06T04:22:07;25.17;;;14.00;;
46675;SDS011;32412;51.478;5.694;2023-04-06T04:24:33;27.35;;;14.13;;
46675;SDS011;32412;51.478;5.694;2023-04-06T04:26:59;22.65;;;13.02;;
46675;SDS011;32412;51.478;5.694;2023-04-06T04:29:28;26.38;;;14.25;;
46675;SDS011;32412;51.478;5.694;2023-04-06T04:31:53;27.73;;;14.27;;
46675;SDS011;32412;51.478;5.694;2023-04-06T04:34:20;25.70;;;13.20;;
46675;SDS011;32412;51.478;5.694;2023-04-06T04:36:48;29.45;;;14.32;;
46675;SDS011;32412;51.478;5.694;2023-04-06T04:39:14;27.10;;;14.35;;
46675;SDS011;32412;51.478;5.694;2023-04-06T04:41:40;29.55;;;14.40;;
46675;SDS011;32412;51.478;5.694;2023-04-06T04:44:06;29.67;;;14.90;;
46675;SDS011;32412;51.478;5.694;2023-04-06T04:46:31;33.08;;;14.48;;
46675;SDS011;32412;51.478;5.694;2023-04-06T04:48:57;31.98;;;14.52;;
46675;SDS011;32412;51.478;5.694;2023-04-06T04:51:22;30.65;;;13.98;;
46675;SDS011;32412;51.478;5.694;2023-04-06T04:53:49;27.33;;;13.90;;
46675;SDS011;32412;51.478;5.694;2023-04-06T04:56:15;28.33;;;14.88;;
46675;SDS011;32412;51.478;5.694;2023-04-06T04:58:41;27.38;;;14.20;;
46675;SDS011;32412;51.478;5.694;2023-04-06T05:01:06;29.65;;;14.35;;
46675;SDS011;32412;51.478;5.694;2023-04-06T05:03:32;28.15;;;14.32;;
46675;SDS011;32412;51.478;5.694;2023-04-06T05:05:58;31.27;;;15.27;;
46675;SDS011;32412;51.478;5.694;2023-04-06T05:08:24;32.50;;;14.63;;
46675;SDS011;32412;51.478;5.694;2023-04-06T05:10:50;29.70;;;15.07;;
46675;SDS011;32412;51.478;5.694;2023-04-06T05:13:16;27.50;;;14.43;;
46675;SDS011;32412;51.478;5.694;2023-04-06T05:15:41;27.00;;;14.10;;
46675;SDS011;32412;51.478;5.694;2023-04-06T05:18:08;27.45;;;14.40;;
46675;SDS011;32412;51.478;5.694;2023-04-06T05:20:34;30.48;;;14.77;;
46675;SDS011;32412;51.478;5.694;2023-04-06T05:23:00;27.55;;;14.88;;
46675;SDS011;32412;51.478;5.694;2023-04-06T05:25:26;30.02;;;15.18;;
46675;SDS011;32412;51.478;5.694;2023-04-06T05:27:52;29.63;;;16.20;;
46675;SDS011;32412;51.478;5.694;2023-04-06T05:30:18;38.75;;;14.90;;
46675;SDS011;32412;51.478;5.694;2023-04-06T05:32:45;30.85;;;14.95;;
46675;SDS011;32412;51.478;5.694;2023-04-06T05:35:11;29.20;;;14.90;;
46675;SDS011;32412;51.478;5.694;2023-04-06T05:37:37;32.55;;;15.55;;
46675;SDS011;32412;51.478;5.694;2023-04-06T05:40:03;25.73;;;14.60;;
46675;SDS011;32412;51.478;5.694;2023-04-06T05:42:39;27.35;;;15.23;;
46675;SDS011;32412;51.478;5.694;2023-04-06T05:45:06;29.35;;;15.85;;
46675;SDS011;32412;51.478;5.694;2023-04-06T05:47:32;30.80;;;15.10;;
46675;SDS011;32412;51.478;5.694;2023-04-06T05:49:58;26.88;;;14.88;;
46675;SDS011;32412;51.478;5.694;2023-04-06T05:52:24;30.98;;;14.35;;
46675;SDS011;32412;51.478;5.694;2023-04-06T05:54:50;30.77;;;15.57;;
46675;SDS011;32412;51.478;5.694;2023-04-06T05:57:16;33.50;;;15.25;;
46675;SDS011;32412;51.478;5.694;2023-04-06T05:59:42;32.00;;;14.93;;
46675;SDS011;32412;51.478;5.694;2023-04-06T06:02:08;25.65;;;14.75;;
46675;SDS011;32412;51.478;5.694;2023-04-06T06:04:34;27.90;;;15.48;;
46675;SDS011;32412;51.478;5.694;2023-04-06T06:06:59;30.13;;;14.88;;
46675;SDS011;32412;51.478;5.694;2023-04-06T06:09:25;27.75;;;14.10;;
46675;SDS011;32412;51.478;5.694;2023-04-06T06:11:51;27.42;;;14.93;;
46675;SDS011;32412;51.478;5.694;2023-04-06T06:14:17;32.45;;;15.85;;
46675;SDS011;32412;51.478;5.694;2023-04-06T06:16:42;30.08;;;15.43;;
46675;SDS011;32412;51.478;5.694;2023-04-06T06:19:08;24.25;;;13.93;;
46675;SDS011;32412;51.478;5.694;2023-04-06T06:21:34;29.80;;;14.90;;
46675;SDS011;32412;51.478;5.694;2023-04-06T06:24:00;29.02;;;14.35;;
46675;SDS011;32412;51.478;5.694;2023-04-06T06:26:25;28.38;;;14.32;;
46675;SDS011;32412;51.478;5.694;2023-04-06T06:28:51;26.95;;;14.65;;
46675;SDS011;32412;51.478;5.694;2023-04-06T06:31:17;25.80;;;14.63;;
46675;SDS011;32412;51.478;5.694;2023-04-06T06:33:45;26.02;;;13.75;;
46675;SDS011;32412;51.478;5.694;2023-04-06T06:36:12;26.35;;;13.77;;
46675;SDS011;32412;51.478;5.694;2023-04-06T06:38:39;23.00;;;13.30;;
46675;SDS011;32412;51.478;5.694;2023-04-06T06:41:05;26.85;;;13.45;;
46675;SDS011;32412;51.478;5.694;2023-04-06T06:43:31;21.75;;;13.02;;
46675;SDS011;32412;51.478;5.694;2023-04-06T06:45:56;24.45;;;13.13;;
46675;SDS011;32412;51.478;5.694;2023-04-06T06:48:25;24.30;;;12.95;;
46675;SDS011;32412;51.478;5.694;2023-04-06T06:50:51;24.00;;;13.10;;
46675;SDS011;32412;51.478;5.694;2023-04-06T06:53:17;27.52;;;14.45;;
46675;SDS011;32412;51.478;5.694;2023-04-06T06:55:42;23.38;;;12.93;;
46675;SDS011;32412;51.478;5.694;2023-04-06T06:58:14;24.08;;;12.25;;
46675;SDS011;32412;51.478;5.694;2023-04-06T07:00:40;26.00;;;12.90;;
46675;SDS011;32412;51.478;5.694;2023-04-06T07:03:06;24.48;;;13.18;;
46675;SDS011;32412;51.478;5.694;2023-04-06T07:05:34;23.52;;;13.15;;
46675;SDS011;32412;51.478;5.694;2023-04-06T07:08:00;22.92;;;13.68;;
46675;SDS011;32412;51.478;5.694;2023-04-06T07:10:26;25.08;;;13.63;;
46675;SDS011;32412;51.478;5.694;2023-04-06T07:12:52;34.78;;;13.65;;
46675;SDS011;32412;51.478;5.694;2023-04-06T07:15:17;29.48;;;13.27;;
46675;SDS011;32412;51.478;5.694;2023-04-06T07:17:43;28.60;;;13.50;;
46675;SDS011;32412;51.478;5.694;2023-04-06T07:20:12;25.83;;;12.73;;
46675;SDS011;32412;51.478;5.694;2023-04-06T07:22:38;22.40;;;12.60;;
46675;SDS011;32412;51.478;5.694;2023-04-06T07:25:05;26.05;;;12.25;;
46675;SDS011;32412;51.478;5.694;2023-04-06T07:27:31;23.75;;;13.02;;
46675;SDS011;32412;51.478;5.694;2023-04-06T07:29:57;24.33;;;13.05;;
46675;SDS011;32412;51.478;5.694;2023-04-06T07:32:23;25.85;;;12.75;;
46675;SDS011;32412;51.478;5.694;2023-04-06T07:34:48;26.77;;;12.73;;
46675;SDS011;32412;51.478;5.694;2023-04-06T07:37:14;23.58;;;12.88;;
46675;SDS011;32412;51.478;5.694;2023-04-06T07:39:40;21.35;;;12.70;;
46675;SDS011;32412;51.478;5.694;2023-04-06T07:42:05;26.40;;;13.73;;
46675;SDS011;32412;51.478;5.694;2023-04-06T07:44:31;27.25;;;13.32;;
46675;SDS011;32412;51.478;5.694;2023-04-06T07:46:57;25.55;;;13.57;;
46675;SDS011;32412;51.478;5.694;2023-04-06T07:49:22;27.88;;;12.82;;
46675;SDS011;32412;51.478;5.694;2023-04-06T07:51:49;25.45;;;13.00;;
46675;SDS011;32412;51.478;5.694;2023-04-06T07:54:14;30.20;;;13.18;;
46675;SDS011;32412;51.478;5.694;2023-04-06T07:56:40;24.45;;;12.88;;
46675;SDS011;32412;51.478;5.694;2023-04-06T07:59:06;22.15;;;12.07;;
46675;SDS011;32412;51.478;5.694;2023-04-06T08:01:36;22.33;;;12.82;;
46675;SDS011;32412;51.478;5.694;2023-04-06T08:04:02;25.38;;;13.57;;
46675;SDS011;32412;51.478;5.694;2023-04-06T08:06:28;21.17;;;11.93;;
46675;SDS011;32412;51.478;5.694;2023-04-06T08:08:54;24.13;;;12.77;;
46675;SDS011;32412;51.478;5.694;2023-04-06T08:11:21;24.42;;;12.07;;
46675;SDS011;32412;51.478;5.694;2023-04-06T08:13:46;24.27;;;13.18;;
46675;SDS011;32412;51.478;5.694;2023-04-06T08:16:12;25.40;;;12.50;;
46675;SDS011;32412;51.478;5.694;2023-04-06T08:18:38;24.13;;;12.13;;
46675;SDS011;32412;51.478;5.694;2023-04-06T08:21:07;20.02;;;12.18;;
46675;SDS011;32412;51.478;5.694;2023-04-06T08:23:33;24.73;;;12.57;;
46675;SDS011;32412;51.478;5.694;2023-04-06T08:25:59;25.30;;;11.88;;
46675;SDS011;32412;51.478;5.694;2023-04-06T08:28:24;27.20;;;12.85;;
46675;SDS011;32412;51.478;5.694;2023-04-06T08:30:50;23.10;;;12.63;;
46675;SDS011;32412;51.478;5.694;2023-04-06T08:33:16;23.42;;;11.60;;
46675;SDS011;32412;51.478;5.694;2023-04-06T08:35:41;20.90;;;11.80;;
46675;SDS011;32412;51.478;5.694;2023-04-06T08:38:07;20.85;;;11.95;;
46675;SDS011;32412;51.478;5.694;2023-04-06T08:40:39;24.88;;;12.45;;
46675;SDS011;32412;51.478;5.694;2023-04-06T08:43:06;18.90;;;11.25;;
46675;SDS011;32412;51.478;5.694;2023-04-06T08:45:38;22.40;;;11.70;;
46675;SDS011;32412;51.478;5.694;2023-04-06T08:48:05;20.25;;;12.30;;
46675;SDS011;32412;51.478;5.694;2023-04-06T08:50:32;22.73;;;12.32;;
46675;SDS011;32412;51.478;5.694;2023-04-06T08:52:58;25.17;;;12.18;;
46675;SDS011;32412;51.478;5.694;2023-04-06T08:55:24;22.10;;;11.38;;
46675;SDS011;32412;51.478;5.694;2023-04-06T08:57:50;21.65;;;12.35;;
46675;SDS011;32412;51.478;5.694;2023-04-06T09:00:19;20.42;;;11.45;;
46675;SDS011;32412;51.478;5.694;2023-04-06T09:02:45;24.10;;;11.68;;
46675;SDS011;32412;51.478;5.694;2023-04-06T09:05:14;22.10;;;12.68;;
46675;SDS011;32412;51.478;5.694;2023-04-06T09:07:40;21.55;;;11.90;;
46675;SDS011;32412;51.478;5.694;2023-04-06T09:10:07;23.90;;;12.18;;
46675;SDS011;32412;51.478;5.694;2023-04-06T09:12:36;21.52;;;11.85;;
46675;SDS011;32412;51.478;5.694;2023-04-06T09:15:02;22.00;;;11.63;;
46675;SDS011;32412;51.478;5.694;2023-04-06T09:17:29;20.67;;;11.32;;
46675;SDS011;32412;51.478;5.694;2023-04-06T09:19:57;19.70;;;11.75;;
46675;SDS011;32412;51.478;5.694;2023-04-06T09:22:24;23.10;;;11.90;;
46675;SDS011;32412;51.478;5.694;2023-04-06T09:24:52;23.98;;;11.63;;
46675;SDS011;32412;51.478;5.694;2023-04-06T09:27:31;23.27;;;12.52;;
46675;SDS011;32412;51.478;5.694;2023-04-06T09:30:06;20.75;;;12.00;;
46675;SDS011;32412;51.478;5.694;2023-04-06T09:32:55;19.00;;;10.88;;
46675;SDS011;32412;51.478;5.694;2023-04-06T09:35:20;21.85;;;12.23;;
46675;SDS011;32412;51.478;5.694;2023-04-06T09:37:47;20.83;;;12.05;;
46675;SDS011;32412;51.478;5.694;2023-04-06T09:40:14;21.40;;;11.30;;
46675;SDS011;32412;51.478;5.694;2023-04-06T09:42:42;21.55;;;12.25;;
46675;SDS011;32412;51.478;5.694;2023-04-06T09:45:11;22.27;;;12.18;;
46675;SDS011;32412;51.478;5.694;2023-04-06T09:47:37;19.77;;;11.18;;
46675;SDS011;32412;51.478;5.694;2023-04-06T09:50:05;20.67;;;11.70;;
46675;SDS011;32412;51.478;5.694;2023-04-06T09:52:37;19.42;;;11.57;;
46675;SDS011;32412;51.478;5.694;2023-04-06T09:55:07;22.55;;;11.75;;
46675;SDS011;32412;51.478;5.694;2023-04-06T09:57:42;20.65;;;11.38;;
46675;SDS011;32412;51.478;5.694;2023-04-06T10:00:09;18.23;;;11.15;;
46675;SDS011;32412;51.478;5.694;2023-04-06T10:05:32;17.75;;;10.40;;
46675;SDS011;32412;51.478;5.694;2023-04-06T10:08:06;15.43;;;9.30;;
46675;SDS011;32412;51.478;5.694;2023-04-06T10:10:35;18.85;;;9.93;;
46675;SDS011;32412;51.478;5.694;2023-04-06T10:13:01;17.60;;;10.38;;
46675;SDS011;32412;51.478;5.694;2023-04-06T10:15:29;16.75;;;9.55;;
46675;SDS011;32412;51.478;5.694;2023-04-06T10:17:56;17.23;;;9.75;;
46675;SDS011;32412;51.478;5.694;2023-04-06T10:25:35;15.63;;;9.15;;
46675;SDS011;32412;51.478;5.694;2023-04-06T10:28:06;17.02;;;8.75;;
46675;SDS011;32412;51.478;5.694;2023-04-06T10:30:34;18.67;;;8.68;;
46675;SDS011;32412;51.478;5.694;2023-04-06T10:33:00;15.15;;;8.40;;
46675;SDS011;32412;51.478;5.694;2023-04-06T10:35:37;17.58;;;8.55;;
46675;SDS011;32412;51.478;5.694;2023-04-06T10:38:03;17.08;;;8.75;;
46675;SDS011;32412;51.478;5.694;2023-04-06T10:40:30;12.32;;;7.60;;
46675;SDS011;32412;51.478;5.694;2023-04-06T10:43:12;17.42;;;8.20;;
46675;SDS011;32412;51.478;5.694;2023-04-06T10:45:43;13.43;;;7.97;;
46675;SDS011;32412;51.478;5.694;2023-04-06T10:48:13;13.07;;;7.50;;
46675;SDS011;32412;51.478;5.694;2023-04-06T10:50:41;12.80;;;7.07;;
46675;SDS011;32412;51.478;5.694;2023-04-06T10:53:10;12.63;;;7.18;;
46675;SDS011;32412;51.478;5.694;2023-04-06T10:55:38;14.15;;;7.30;;
46675;SDS011;32412;51.478;5.694;2023-04-06T10:58:06;14.00;;;7.22;;
46675;SDS011;32412;51.478;5.694;2023-04-06T11:00:32;10.40;;;7.00;;
46675;SDS011;32412;51.478;5.694;2023-04-06T11:02:59;11.70;;;6.28;;
46675;SDS011;32412;51.478;5.694;2023-04-06T11:05:26;10.90;;;6.78;;
46675;SDS011;32412;51.478;5.694;2023-04-06T11:07:55;13.25;;;6.97;;
46675;SDS011;32412;51.478;5.694;2023-04-06T11:10:22;12.50;;;6.47;;
46675;SDS011;32412;51.478;5.694;2023-04-06T11:12:57;13.15;;;6.55;;
46675;SDS011;32412;51.478;5.694;2023-04-06T11:15:23;12.13;;;7.22;;
46675;SDS011;32412;51.478;5.694;2023-04-06T11:17:48;12.75;;;6.90;;
46675;SDS011;32412;51.478;5.694;2023-04-06T11:20:14;11.43;;;6.70;;
46675;SDS011;32412;51.478;5.694;2023-04-06T11:22:53;9.52;;;5.25;;
46675;SDS011;32412;51.478;5.694;2023-04-06T11:25:18;9.10;;;5.30;;
46675;SDS011;32412;51.478;5.694;2023-04-06T11:27:45;8.77;;;5.35;;
46675;SDS011;32412;51.478;5.694;2023-04-06T11:30:12;9.13;;;5.25;;
46675;SDS011;32412;51.478;5.694;2023-04-06T11:32:40;13.05;;;5.32;;
46675;SDS011;32412;51.478;5.694;2023-04-06T11:35:24;10.98;;;4.38;;
46675;SDS011;32412;51.478;5.694;2023-04-06T11:37:50;7.93;;;4.70;;
46675;SDS011;32412;51.478;5.694;2023-04-06T11:40:23;6.25;;;3.65;;
46675;SDS011;32412;51.478;5.694;2023-04-06T11:42:52;7.38;;;4.13;;
46675;SDS011;32412;51.478;5.694;2023-04-06T11:45:19;8.75;;;4.28;;
46675;SDS011;32412;51.478;5.694;2023-04-06T11:47:45;9.90;;;4.68;;
46675;SDS011;32412;51.478;5.694;2023-04-06T11:50:21;8.43;;;4.90;;
46675;SDS011;32412;51.478;5.694;2023-04-06T11:52:47;10.55;;;5.32;;
46675;SDS011;32412;51.478;5.694;2023-04-06T11:55:25;10.95;;;5.55;;
46675;SDS011;32412;51.478;5.694;2023-04-06T11:57:50;12.68;;;5.93;;
46675;SDS011;32412;51.478;5.694;2023-04-06T12:00:16;12.10;;;5.65;;
46675;SDS011;32412;51.478;5.694;2023-04-06T12:02:47;9.80;;;5.72;;
46675;SDS011;32412;51.478;5.694;2023-04-06T12:05:13;8.90;;;5.72;;
46675;SDS011;32412;51.478;5.694;2023-04-06T12:07:39;10.52;;;5.88;;
46675;SDS011;32412;51.478;5.694;2023-04-06T12:10:05;10.68;;;5.88;;
46675;SDS011;32412;51.478;5.694;2023-04-06T12:12:31;11.05;;;5.72;;
46675;SDS011;32412;51.478;5.694;2023-04-06T12:14:57;14.50;;;5.93;;
46675;SDS011;32412;51.478;5.694;2023-04-06T12:17:23;11.23;;;5.55;;
46675;SDS011;32412;51.478;5.694;2023-04-06T12:19:49;11.20;;;6.30;;
46675;SDS011;32412;51.478;5.694;2023-04-06T12:22:15;12.82;;;6.05;;
46675;SDS011;32412;51.478;5.694;2023-04-06T12:24:42;14.18;;;7.13;;
46675;SDS011;32412;51.478;5.694;2023-04-06T12:27:08;12.38;;;6.78;;
46675;SDS011;32412;51.478;5.694;2023-04-06T12:29:36;10.18;;;6.28;;
46675;SDS011;32412;51.478;5.694;2023-04-06T12:32:02;11.88;;;6.65;;
46675;SDS011;32412;51.478;5.694;2023-04-06T12:34:27;17.17;;;6.43;;
46675;SDS011;32412;51.478;5.694;2023-04-06T12:36:53;11.15;;;7.10;;
46675;SDS011;32412;51.478;5.694;2023-04-06T12:39:19;10.57;;;6.80;;
46675;SDS011;32412;51.478;5.694;2023-04-06T12:41:46;14.65;;;6.72;;
46675;SDS011;32412;51.478;5.694;2023-04-06T12:44:12;12.23;;;6.20;;
46675;SDS011;32412;51.478;5.694;2023-04-06T12:46:38;12.68;;;7.10;;
46675;SDS011;32412;51.478;5.694;2023-04-06T12:49:03;15.10;;;7.85;;
46675;SDS011;32412;51.478;5.694;2023-04-06T12:51:29;15.50;;;7.65;;
46675;SDS011;32412;51.478;5.694;2023-04-06T12:53:56;12.68;;;7.55;;
46675;SDS011;32412;51.478;5.694;2023-04-06T12:56:22;13.75;;;7.32;;
46675;SDS011;32412;51.478;5.694;2023-04-06T12:58:47;13.85;;;8.07;;
46675;SDS011;32412;51.478;5.694;2023-04-06T13:01:15;15.25;;;8.15;;
46675;SDS011;32412;51.478;5.694;2023-04-06T13:03:41;12.35;;;7.63;;
46675;SDS011;32412;51.478;5.694;2023-04-06T13:06:07;13.63;;;7.72;;
46675;SDS011;32412;51.478;5.694;2023-04-06T13:08:33;17.35;;;8.90;;
46675;SDS011;32412;51.478;5.694;2023-04-06T13:11:01;17.60;;;8.35;;
46675;SDS011;32412;51.478;5.694;2023-04-06T13:13:27;19.52;;;9.25;;
46675;SDS011;32412;51.478;5.694;2023-04-06T13:15:55;19.77;;;10.50;;
46675;SDS011;32412;51.478;5.694;2023-04-06T13:18:28;17.90;;;9.20;;
46675;SDS011;32412;51.478;5.694;2023-04-06T13:20:55;16.98;;;8.90;;
46675;SDS011;32412;51.478;5.694;2023-04-06T13:23:21;15.40;;;8.50;;
46675;SDS011;32412;51.478;5.694;2023-04-06T13:25:58;17.30;;;8.73;;
46675;SDS011;32412;51.478;5.694;2023-04-06T13:28:31;15.23;;;8.65;;
46675;SDS011;32412;51.478;5.694;2023-04-06T13:30:58;15.95;;;8.43;;
46675;SDS011;32412;51.478;5.694;2023-04-06T13:33:28;13.50;;;8.57;;
46675;SDS011;32412;51.478;5.694;2023-04-06T13:35:55;13.52;;;8.40;;
46675;SDS011;32412;51.478;5.694;2023-04-06T13:38:20;13.27;;;8.35;;
46675;SDS011;32412;51.478;5.694;2023-04-06T13:40:49;12.25;;;7.60;;
46675;SDS011;32412;51.478;5.694;2023-04-06T13:43:14;14.43;;;7.40;;
46675;SDS011;32412;51.478;5.694;2023-04-06T13:45:48;15.07;;;8.57;;
46675;SDS011;32412;51.478;5.694;2023-04-06T13:48:17;15.05;;;8.32;;
46675;SDS011;32412;51.478;5.694;2023-04-06T13:50:43;15.30;;;8.45;;
46675;SDS011;32412;51.478;5.694;2023-04-06T13:53:10;15.30;;;8.30;;
46675;SDS011;32412;51.478;5.694;2023-04-06T13:55:35;14.73;;;7.90;;
46675;SDS011;32412;51.478;5.694;2023-04-06T13:58:01;14.90;;;8.95;;
46675;SDS011;32412;51.478;5.694;2023-04-06T14:00:26;14.30;;;8.10;;
46675;SDS011;32412;51.478;5.694;2023-04-06T14:02:55;16.92;;;8.90;;
46675;SDS011;32412;51.478;5.694;2023-04-06T14:05:21;18.50;;;8.95;;
46675;SDS011;32412;51.478;5.694;2023-04-06T14:07:48;15.18;;;9.20;;
46675;SDS011;32412;51.478;5.694;2023-04-06T14:10:16;17.02;;;9.13;;
46675;SDS011;32412;51.478;5.694;2023-04-06T14:12:42;16.23;;;9.57;;
46675;SDS011;32412;51.478;5.694;2023-04-06T14:15:11;17.25;;;9.02;;
46675;SDS011;32412;51.478;5.694;2023-04-06T14:17:37;18.60;;;9.80;;
46675;SDS011;32412;51.478;5.694;2023-04-06T14:20:06;17.08;;;10.30;;
46675;SDS011;32412;51.478;5.694;2023-04-06T14:22:33;18.60;;;9.93;;
46675;SDS011;32412;51.478;5.694;2023-04-06T14:24:58;18.15;;;9.82;;
46675;SDS011;32412;51.478;5.694;2023-04-06T14:27:24;16.38;;;9.93;;
46675;SDS011;32412;51.478;5.694;2023-04-06T14:29:50;16.75;;;9.18;;
46675;SDS011;32412;51.478;5.694;2023-04-06T14:32:16;18.50;;;9.93;;